createdAt,value
2023-05-08T00:01:40.462Z,83.02
2023-05-08T00:03:43.599Z,83.50
2023-05-08T00:05:46.661Z,84.03
2023-05-08T00:07:51.471Z,83.98
2023-05-08T00:09:55.811Z,84.30
2023-05-08T00:11:58.942Z,85.87
2023-05-08T00:14:01.921Z,86.09
2023-05-08T00:16:05.558Z,87.01
2023-05-08T00:18:08.566Z,87.67
2023-05-08T00:20:12.973Z,86.42
2023-05-08T00:22:16.111Z,87.37
2023-05-08T00:24:19.056Z,87.58
2023-05-08T00:26:23.552Z,87.17
2023-05-08T00:28:26.671Z,86.47
2023-05-08T00:30:29.715Z,86.82
2023-05-08T00:32:33.557Z,86.24
2023-05-08T00:34:36.764Z,85.21
2023-05-08T00:36:39.960Z,84.76
2023-05-08T00:38:42.831Z,84.32
2023-05-08T00:40:45.898Z,84.87
2023-05-08T00:42:50.279Z,84.11
2023-05-08T00:44:53.210Z,84.70
2023-05-08T00:46:56.531Z,83.49
2023-05-08T00:49:00.630Z,84.35
2023-05-08T00:51:06.785Z,83.83
2023-05-08T00:53:09.903Z,84.18
2023-05-08T00:55:13.279Z,83.11
2023-05-08T00:57:17.250Z,84.07
2023-05-08T00:59:23.213Z,83.79
2023-05-08T01:01:26.676Z,84.50
2023-05-08T01:03:30.190Z,85.08
2023-05-08T01:05:33.682Z,85.29
2023-05-08T01:07:36.683Z,84.70
2023-05-08T01:09:40.215Z,84.97
2023-05-08T01:11:48.239Z,85.76
2023-05-08T01:13:58.223Z,85.90
2023-05-08T01:16:13.514Z,86.50
2023-05-08T01:18:21.494Z,85.78
2023-05-08T01:20:36.044Z,86.06
2023-05-08T01:22:54.504Z,86.05
2023-05-08T01:25:31.054Z,85.82
2023-05-08T01:28:06.517Z,86.05
2023-05-08T01:30:45.408Z,86.46
2023-05-08T01:32:55.926Z,86.36
2023-05-08T01:35:12.756Z,86.35
2023-05-08T01:37:20.034Z,86.29
2023-05-08T01:39:36.082Z,85.65
2023-05-08T01:41:42.413Z,85.90
2023-05-08T01:43:52.764Z,86.27
2023-05-08T01:45:56.922Z,86.56
2023-05-08T01:48:06.644Z,85.97
2023-05-08T01:50:19.273Z,85.79
2023-05-08T01:52:30.275Z,85.87
2023-05-08T01:54:41.376Z,85.89
2023-05-08T01:56:46.454Z,85.80
2023-05-08T01:58:53.392Z,86.43
2023-05-08T02:00:59.410Z,86.43
2023-05-08T02:03:06.352Z,86.01
2023-05-08T02:05:11.414Z,86.08
2023-05-08T02:07:14.815Z,86.03
2023-05-08T02:09:19.084Z,86.11
2023-05-08T02:11:25.084Z,85.97
2023-05-08T02:13:30.395Z,85.81
2023-05-08T02:15:36.953Z,85.45
2023-05-08T02:17:44.387Z,85.62
2023-05-08T02:19:51.616Z,85.25
2023-05-08T02:21:59.788Z,85.75
2023-05-08T02:24:03.704Z,84.91
2023-05-08T02:26:07.105Z,85.25
2023-05-08T02:28:11.404Z,85.54
2023-05-08T02:30:17.304Z,85.72
2023-05-08T02:32:21.521Z,85.68
2023-05-08T02:34:25.156Z,85.23
2023-05-08T02:36:31.440Z,85.04
2023-05-08T02:38:38.260Z,85.04
2023-05-08T02:40:47.876Z,85.77
2023-05-08T02:42:51.287Z,85.47
2023-05-08T02:44:54.286Z,85.72
2023-05-08T02:47:05.703Z,85.46
2023-05-08T02:49:17.489Z,85.84
2023-05-08T02:51:25.834Z,85.42
2023-05-08T02:53:36.333Z,86.36
2023-05-08T02:55:43.329Z,86.30
2023-05-08T02:57:51.490Z,86.59
2023-05-08T03:00:00.366Z,86.45
2023-05-08T03:02:12.588Z,86.45
2023-05-08T03:04:25.073Z,86.32
2023-05-08T03:06:34.357Z,86.30
2023-05-08T03:08:40.356Z,86.74
2023-05-08T03:10:47.117Z,86.26
2023-05-08T03:12:53.907Z,86.24
2023-05-08T03:15:05.011Z,86.35
2023-05-08T03:17:12.932Z,86.10
2023-05-08T03:19:23.090Z,86.67
2023-05-08T03:21:29.330Z,86.29
2023-05-08T03:23:35.788Z,86.35
2023-05-08T03:25:42.568Z,85.50
2023-05-08T03:27:47.596Z,85.97
2023-05-08T03:29:52.649Z,86.06
2023-05-08T03:31:57.767Z,85.45
2023-05-08T03:34:01.372Z,85.67
2023-05-08T03:36:04.886Z,85.29
2023-05-08T03:38:08.850Z,85.65
2023-05-08T03:40:12.954Z,85.63
2023-05-08T03:42:21.820Z,85.60
2023-05-08T03:44:28.324Z,85.15
2023-05-08T03:46:33.738Z,85.44
2023-05-08T03:48:38.346Z,85.49
2023-05-08T03:50:42.816Z,84.94
2023-05-08T03:52:46.686Z,84.82
2023-05-08T03:54:49.577Z,83.79
2023-05-08T03:56:54.012Z,83.23
2023-05-08T03:59:10.222Z,83.12
2023-05-08T04:01:22.592Z,83.53
2023-05-08T04:03:33.540Z,83.10
2023-05-08T04:05:43.894Z,82.83
2023-05-08T04:07:51.586Z,82.58
2023-05-08T04:10:01.036Z,82.84
2023-05-08T04:12:10.091Z,82.31
2023-05-08T04:14:19.846Z,80.56
2023-05-08T04:16:27.321Z,79.99
2023-05-08T04:18:31.866Z,80.68
2023-05-08T04:20:40.806Z,78.46
2023-05-08T04:22:45.586Z,78.19
2023-05-08T04:24:50.887Z,77.58
2023-05-08T04:26:54.669Z,78.64
2023-05-08T04:28:58.449Z,76.79
2023-05-08T04:31:05.153Z,75.33
2023-05-08T04:33:09.779Z,76.65
2023-05-08T04:35:15.895Z,76.07
2023-05-08T04:37:25.451Z,76.66
2023-05-08T04:39:28.539Z,76.58
2023-05-08T04:41:32.607Z,76.53
2023-05-08T04:43:35.980Z,75.90
2023-05-08T04:45:39.525Z,74.90
2023-05-08T04:47:44.041Z,75.98
2023-05-08T04:49:47.039Z,75.75
2023-05-08T04:51:50.101Z,74.30
2023-05-08T04:53:53.031Z,74.63
2023-05-08T04:55:57.609Z,75.45
2023-05-08T04:58:00.712Z,74.79
2023-05-08T05:00:05.430Z,75.06
2023-05-08T05:02:12.438Z,74.01
2023-05-08T05:04:17.048Z,73.92
2023-05-08T05:06:20.488Z,74.24
2023-05-08T05:08:23.366Z,74.27
2023-05-08T05:10:26.484Z,74.36
2023-05-08T05:12:29.339Z,74.61
2023-05-08T05:14:32.521Z,73.60
2023-05-08T05:16:35.965Z,74.26
2023-05-08T05:18:39.564Z,75.07
2023-05-08T05:20:44.044Z,75.01
2023-05-08T05:22:47.375Z,75.28
2023-05-08T05:24:50.492Z,74.90
2023-05-08T05:26:53.344Z,75.94
2023-05-08T05:28:56.441Z,76.12
2023-05-08T05:30:59.466Z,76.23
2023-05-08T05:33:02.694Z,76.07
2023-05-08T05:35:06.628Z,75.49
2023-05-08T05:37:11.387Z,75.31
2023-05-08T05:39:14.482Z,76.49
2023-05-08T05:41:17.614Z,73.72
2023-05-08T05:43:20.694Z,73.74
2023-05-08T05:45:23.710Z,71.87
2023-05-08T05:47:26.773Z,73.03
2023-05-08T05:49:29.901Z,71.91
2023-05-08T05:51:33.227Z,73.13
2023-05-08T05:53:39.087Z,72.77
2023-05-08T05:55:41.950Z,72.15
2023-05-08T05:57:44.941Z,72.08
2023-05-08T05:59:49.300Z,71.58
2023-05-08T06:01:53.028Z,71.37
2023-05-08T06:03:56.313Z,71.71
2023-05-08T06:06:00.450Z,72.95
2023-05-08T06:08:03.610Z,71.52
2023-05-08T06:10:09.394Z,71.57
2023-05-08T06:12:12.449Z,71.50
2023-05-08T06:14:15.503Z,72.07
2023-05-08T06:16:21.053Z,71.94
2023-05-08T06:18:24.439Z,72.51
2023-05-08T06:20:27.348Z,71.55
2023-05-08T06:22:31.581Z,71.22
2023-05-08T06:24:35.896Z,71.39
2023-05-08T06:26:40.458Z,70.58
2023-05-08T06:28:43.520Z,70.92
2023-05-08T06:30:46.599Z,70.98
2023-05-08T06:32:49.795Z,69.80
2023-05-08T06:34:52.739Z,68.96
2023-05-08T06:36:55.782Z,68.53
2023-05-08T06:38:58.902Z,69.46
2023-05-08T06:41:01.818Z,68.95
2023-05-08T06:43:06.254Z,67.04
2023-05-08T06:45:10.376Z,66.06
2023-05-08T06:47:13.434Z,68.61
2023-05-08T06:49:16.382Z,66.44
2023-05-08T06:51:20.207Z,67.13
2023-05-08T06:53:23.103Z,68.12
2023-05-08T06:55:25.962Z,68.70
2023-05-08T06:57:30.592Z,70.15
2023-05-08T06:59:34.955Z,69.24
2023-05-08T07:01:38.207Z,67.06
2023-05-08T07:03:41.981Z,64.91
2023-05-08T07:05:44.954Z,66.12
2023-05-08T07:07:47.914Z,67.55
2023-05-08T07:09:51.146Z,68.65
2023-05-08T07:11:54.133Z,68.51
2023-05-08T07:13:57.283Z,69.18
2023-05-08T07:16:01.816Z,69.58
2023-05-08T07:18:05.002Z,65.50
2023-05-08T07:20:09.258Z,63.23
2023-05-08T07:22:12.262Z,64.39
2023-05-08T07:24:15.432Z,64.75
2023-05-08T07:26:18.939Z,63.91
2023-05-08T07:28:22.105Z,64.25
2023-05-08T07:30:25.014Z,61.87
2023-05-08T07:32:30.908Z,62.54
2023-05-08T07:34:34.537Z,64.89
2023-05-08T07:36:38.134Z,64.36
2023-05-08T07:38:41.136Z,61.80
2023-05-08T07:40:44.432Z,61.72
2023-05-08T07:42:47.348Z,64.04
2023-05-08T07:44:54.868Z,61.39
2023-05-08T07:46:58.614Z,63.15
2023-05-08T07:49:03.185Z,61.94
2023-05-08T07:51:06.332Z,63.47
2023-05-08T07:53:09.418Z,60.82
2023-05-08T07:55:12.687Z,61.70
2023-05-08T07:57:15.978Z,63.44
2023-05-08T07:59:18.975Z,62.50
2023-05-08T08:01:22.139Z,65.00
2023-05-08T08:03:25.178Z,60.66
2023-05-08T08:05:29.815Z,60.48
2023-05-08T08:07:35.750Z,60.24
2023-05-08T08:09:38.743Z,60.99
2023-05-08T08:11:41.719Z,60.11
2023-05-08T08:13:44.916Z,61.99
2023-05-08T08:15:48.181Z,61.69
2023-05-08T08:17:51.264Z,63.96
2023-05-08T08:19:54.238Z,58.15
2023-05-08T08:21:58.711Z,56.18
2023-05-08T08:24:01.987Z,57.38
2023-05-08T08:26:05.251Z,56.50
2023-05-08T08:28:08.498Z,55.75
2023-05-08T08:30:17.683Z,56.75
2023-05-08T08:32:21.801Z,55.88
2023-05-08T08:34:24.777Z,55.69
2023-05-08T08:36:28.522Z,56.40
2023-05-08T08:38:33.073Z,55.85
2023-05-08T08:40:40.821Z,55.76
2023-05-08T08:42:43.749Z,55.71
2023-05-08T08:44:46.915Z,56.45
2023-05-08T08:46:52.386Z,53.68
2023-05-08T08:48:56.798Z,53.41
2023-05-08T08:51:03.522Z,55.48
2023-05-08T08:53:10.910Z,56.83
2023-05-08T08:55:17.474Z,57.02
2023-05-08T08:57:22.270Z,56.00
2023-05-08T08:59:29.452Z,53.69
2023-05-08T09:01:36.425Z,53.91
2023-05-08T09:03:39.576Z,52.64
2023-05-08T09:05:45.718Z,54.42
2023-05-08T09:07:49.154Z,53.53
2023-05-08T09:09:53.619Z,52.10
2023-05-08T09:11:58.050Z,51.46
2023-05-08T09:14:00.959Z,53.81
2023-05-08T09:16:04.238Z,55.34
2023-05-08T09:18:07.249Z,55.77
2023-05-08T09:20:11.992Z,55.79
2023-05-08T09:22:16.118Z,53.84
2023-05-08T09:24:19.161Z,54.49
2023-05-08T09:26:34.289Z,52.40
2023-05-08T09:28:38.692Z,52.24
2023-05-08T09:30:50.917Z,54.73
2023-05-08T09:33:03.064Z,52.17
2023-05-08T09:35:07.549Z,53.42
2023-05-08T09:37:14.887Z,55.59
2023-05-08T09:39:23.645Z,55.05
2023-05-08T09:41:27.050Z,55.46
2023-05-08T09:43:29.961Z,56.73
2023-05-08T09:45:35.707Z,56.99
2023-05-08T09:47:39.919Z,55.01
2023-05-08T09:49:57.680Z,55.75
2023-05-08T09:52:01.072Z,56.01
2023-05-08T09:54:06.819Z,53.19
2023-05-08T09:56:10.165Z,55.28
2023-05-08T09:58:13.143Z,54.44
2023-05-08T10:00:17.096Z,54.35
2023-05-08T10:02:21.767Z,51.41
2023-05-08T10:04:34.521Z,54.77
2023-05-08T10:06:37.708Z,53.84
2023-05-08T10:08:41.093Z,52.39
2023-05-08T10:10:44.022Z,53.64
2023-05-08T10:12:47.149Z,52.15
2023-05-08T10:14:50.299Z,53.25
2023-05-08T10:16:54.722Z,51.06
2023-05-08T10:19:02.733Z,50.42
2023-05-08T10:21:08.951Z,49.65
2023-05-08T10:23:17.830Z,49.34
2023-05-08T10:25:23.546Z,48.33
2023-05-08T10:27:35.383Z,47.02
2023-05-08T10:29:43.502Z,47.02
2023-05-08T10:31:50.663Z,45.21
2023-05-08T10:33:56.118Z,45.86
2023-05-08T10:36:00.320Z,45.76
2023-05-08T10:38:04.249Z,47.61
2023-05-08T10:40:08.835Z,46.02
2023-05-08T10:42:12.635Z,46.34
2023-05-08T10:44:16.296Z,46.80
2023-05-08T10:46:30.371Z,44.84
2023-05-08T10:48:39.744Z,46.58
2023-05-08T10:50:56.934Z,46.94
2023-05-08T10:53:07.786Z,46.64
2023-05-08T10:55:20.426Z,45.87
2023-05-08T10:57:23.412Z,45.73
2023-05-08T10:59:26.614Z,44.58
2023-05-08T11:01:29.808Z,46.05
2023-05-08T11:03:38.722Z,43.58
2023-05-08T11:05:49.003Z,45.25
2023-05-08T11:07:56.063Z,45.68
2023-05-08T11:10:14.539Z,44.46
2023-05-08T11:12:23.361Z,44.42
2023-05-08T11:14:27.549Z,45.57
2023-05-08T11:17:02.480Z,44.99
2023-05-08T11:19:18.837Z,44.64
2023-05-08T11:21:24.817Z,42.72
2023-05-08T11:23:28.866Z,44.69
2023-05-08T11:25:44.834Z,46.24
2023-05-08T11:28:05.014Z,45.36
2023-05-08T11:30:22.331Z,45.82
2023-05-08T11:33:13.206Z,43.35
2023-05-08T11:35:42.839Z,43.91
2023-05-08T11:38:12.400Z,41.51
2023-05-08T11:40:48.609Z,42.70
2023-05-08T11:42:51.761Z,42.01
2023-05-08T11:45:05.428Z,42.90
2023-05-08T11:47:10.317Z,44.97
2023-05-08T11:49:17.279Z,41.18
2023-05-08T11:51:22.772Z,43.28
2023-05-08T11:53:26.047Z,42.09
2023-05-08T11:55:29.204Z,41.41
2023-05-08T11:57:34.402Z,39.51
2023-05-08T11:59:37.972Z,40.57
2023-05-08T12:01:41.017Z,40.38
2023-05-08T12:03:44.012Z,42.93
2023-05-08T12:05:47.840Z,43.57
2023-05-08T12:07:50.970Z,43.68
2023-05-08T12:09:54.250Z,44.04
2023-05-08T12:11:58.401Z,41.17
2023-05-08T12:14:02.881Z,40.34
2023-05-08T12:16:06.335Z,43.67
2023-05-08T12:18:09.537Z,43.65
2023-05-08T12:20:14.835Z,44.23
2023-05-08T12:22:17.805Z,43.26
2023-05-08T12:24:23.800Z,40.79
2023-05-08T12:26:27.181Z,42.61
2023-05-08T12:28:32.728Z,42.85
2023-05-08T12:30:37.444Z,40.50
2023-05-08T12:32:42.227Z,41.09
2023-05-08T12:34:45.858Z,42.76
2023-05-08T12:36:48.977Z,41.44
2023-05-08T12:38:52.132Z,40.79
2023-05-08T12:40:58.201Z,41.46
2023-05-08T12:43:02.782Z,41.34
2023-05-08T12:45:06.859Z,41.27
2023-05-08T12:47:12.079Z,42.41
2023-05-08T12:49:15.052Z,41.99
2023-05-08T12:51:17.942Z,43.02
2023-05-08T12:53:23.522Z,42.68
2023-05-08T12:55:26.760Z,42.79
2023-05-08T12:57:29.621Z,41.83
2023-05-08T12:59:33.680Z,41.15
2023-05-08T13:01:36.644Z,40.29
2023-05-08T13:03:42.775Z,40.67
2023-05-08T13:05:46.366Z,41.84
2023-05-08T13:07:50.122Z,41.78
2023-05-08T13:10:05.781Z,39.84
2023-05-08T13:12:09.106Z,40.86
2023-05-08T13:14:12.287Z,40.53
2023-05-08T13:16:15.507Z,39.76
2023-05-08T13:18:19.820Z,40.30
2023-05-08T13:20:24.368Z,42.23
2023-05-08T13:22:27.335Z,43.32
2023-05-08T13:24:30.440Z,45.28
2023-05-08T13:26:33.354Z,43.28
2023-05-08T13:28:36.412Z,41.72
2023-05-08T13:30:39.726Z,42.63
2023-05-08T13:32:42.699Z,43.62
2023-05-08T13:34:50.185Z,41.83
2023-05-08T13:36:56.058Z,41.91
2023-05-08T13:38:59.123Z,41.35
2023-05-08T13:41:02.163Z,40.64
2023-05-08T13:43:05.019Z,40.72
2023-05-08T13:45:11.004Z,43.55
2023-05-08T13:47:13.968Z,42.65
2023-05-08T13:49:18.643Z,42.19
2023-05-08T13:51:21.651Z,39.98
2023-05-08T13:53:26.042Z,42.32
2023-05-08T13:55:29.261Z,42.77
2023-05-08T13:57:32.363Z,41.46
2023-05-08T13:59:35.321Z,41.36
2023-05-08T14:01:38.435Z,42.06
2023-05-08T14:03:41.528Z,42.70
2023-05-08T14:05:44.650Z,43.42
2023-05-08T14:07:47.845Z,42.42
2023-05-08T14:09:52.402Z,40.68
2023-05-08T14:11:55.446Z,40.33
2023-05-08T14:13:58.394Z,40.13
2023-05-08T14:16:01.403Z,44.23
2023-05-08T14:18:04.934Z,42.88
2023-05-08T14:20:10.988Z,43.04
2023-05-08T14:22:14.761Z,42.63
2023-05-08T14:24:17.843Z,42.77
2023-05-08T14:26:22.524Z,42.93
2023-05-08T14:28:25.443Z,44.33
2023-05-08T14:30:28.539Z,44.02
2023-05-08T14:32:31.685Z,43.41
2023-05-08T14:34:34.618Z,41.24
2023-05-08T14:36:37.683Z,43.11
2023-05-08T14:38:40.604Z,41.88
2023-05-08T14:40:43.491Z,42.14
2023-05-08T14:42:48.042Z,41.22
2023-05-08T14:44:51.382Z,42.06
2023-05-08T14:46:54.489Z,41.13
2023-05-08T14:48:57.570Z,43.14
2023-05-08T14:51:00.484Z,43.03
2023-05-08T14:53:03.662Z,43.57
2023-05-08T14:55:08.360Z,43.29
2023-05-08T14:57:11.570Z,42.71
2023-05-08T14:59:16.216Z,42.03
2023-05-08T15:01:19.358Z,42.67
2023-05-08T15:03:22.437Z,42.38
2023-05-08T15:05:25.866Z,44.29
2023-05-08T15:07:29.090Z,42.62
2023-05-08T15:09:32.021Z,43.75
2023-05-08T15:11:35.961Z,42.83
2023-05-08T15:13:38.831Z,42.88
2023-05-08T15:15:43.406Z,41.13
2023-05-08T15:17:46.370Z,41.86
2023-05-08T15:19:49.498Z,43.25
2023-05-08T15:21:52.482Z,43.96
2023-05-08T15:23:56.093Z,44.09
2023-05-08T15:25:59.203Z,42.75
2023-05-08T15:28:02.615Z,43.58
2023-05-08T15:30:06.821Z,44.44
2023-05-08T15:32:11.461Z,42.20
2023-05-08T15:34:14.564Z,41.63
2023-05-08T15:36:17.447Z,42.02
2023-05-08T15:38:20.441Z,42.46
2023-05-08T15:40:23.442Z,43.30
2023-05-08T15:42:26.530Z,42.43
2023-05-08T15:44:41.747Z,42.83
2023-05-08T15:46:52.387Z,43.38
2023-05-08T15:48:56.844Z,44.27
2023-05-08T15:50:59.846Z,45.44
2023-05-08T15:53:03.028Z,44.31
2023-05-08T15:55:06.715Z,44.96
2023-05-08T15:57:09.722Z,45.07
2023-05-08T15:59:12.688Z,42.80
2023-05-08T16:01:15.820Z,43.87
2023-05-08T16:03:19.304Z,43.94
2023-05-08T16:05:23.966Z,44.31
2023-05-08T16:07:26.905Z,45.28
2023-05-08T16:09:29.825Z,43.40
2023-05-08T16:11:32.942Z,43.68
2023-05-08T16:13:35.942Z,44.64
2023-05-08T16:15:38.906Z,43.89
2023-05-08T16:17:41.944Z,43.72
2023-05-08T16:19:44.889Z,43.48
2023-05-08T16:21:49.313Z,46.60
2023-05-08T16:23:53.414Z,44.72
2023-05-08T16:25:56.837Z,45.10
2023-05-08T16:27:59.937Z,44.40
2023-05-08T16:30:02.963Z,44.34
2023-05-08T16:32:06.317Z,43.64
2023-05-08T16:34:09.426Z,42.67
2023-05-08T16:36:12.319Z,44.98
2023-05-08T16:38:16.924Z,44.33
2023-05-08T16:40:20.072Z,44.16
2023-05-08T16:42:23.165Z,45.37
2023-05-08T16:44:26.492Z,45.88
2023-05-08T16:46:30.280Z,46.33
2023-05-08T16:48:33.726Z,45.80
2023-05-08T16:50:36.706Z,44.62
2023-05-08T16:52:39.641Z,44.97
2023-05-08T16:54:44.145Z,44.59
2023-05-08T16:56:47.057Z,45.88
2023-05-08T16:58:50.015Z,45.63
2023-05-08T17:00:53.674Z,45.44
2023-05-08T17:02:56.775Z,44.67
2023-05-08T17:04:59.837Z,46.37
2023-05-08T17:07:05.321Z,44.35
2023-05-08T17:09:08.371Z,45.33
2023-05-08T17:11:12.735Z,46.05
2023-05-08T17:13:15.996Z,45.74
2023-05-08T17:15:19.087Z,45.26
2023-05-08T17:17:22.121Z,46.41
2023-05-08T17:19:25.056Z,45.66
2023-05-08T17:21:28.016Z,45.47
2023-05-08T17:23:30.953Z,44.86
2023-05-08T17:25:33.835Z,45.91
2023-05-08T17:27:39.013Z,46.25
2023-05-08T17:29:41.955Z,45.43
2023-05-08T17:31:44.896Z,46.29
2023-05-08T17:33:47.974Z,47.44
2023-05-08T17:35:51.029Z,47.45
2023-05-08T17:37:54.046Z,47.46
2023-05-08T17:39:57.355Z,45.90
2023-05-08T17:42:00.199Z,45.32
2023-05-08T17:44:04.987Z,45.83
2023-05-08T17:46:07.983Z,45.78
2023-05-08T17:48:11.197Z,46.14
2023-05-08T17:50:14.299Z,46.78
2023-05-08T17:52:17.295Z,46.20
2023-05-08T17:54:20.196Z,46.77
2023-05-08T17:56:23.741Z,47.78
2023-05-08T17:58:27.047Z,47.06
2023-05-08T18:00:31.399Z,46.40
2023-05-08T18:02:34.443Z,47.56
2023-05-08T18:04:37.514Z,47.42
2023-05-08T18:06:40.512Z,46.12
2023-05-08T18:08:43.628Z,47.75
2023-05-08T18:10:46.673Z,46.66
2023-05-08T18:12:49.798Z,48.38
2023-05-08T18:14:52.892Z,48.00
2023-05-08T18:16:57.266Z,48.49
2023-05-08T18:19:00.181Z,50.03
2023-05-08T18:21:03.164Z,50.07
2023-05-08T18:23:06.085Z,49.43
2023-05-08T18:25:09.352Z,49.84
2023-05-08T18:27:12.426Z,51.22
2023-05-08T18:29:15.565Z,51.35
2023-05-08T18:31:18.441Z,50.76
2023-05-08T18:33:22.844Z,54.63
2023-05-08T18:35:25.843Z,53.35
2023-05-08T18:37:29.596Z,53.88
2023-05-08T18:39:32.564Z,54.32
2023-05-08T18:41:36.839Z,55.33
2023-05-08T18:43:39.786Z,54.76
2023-05-08T18:45:42.860Z,57.50
2023-05-08T18:47:46.122Z,56.43
2023-05-08T18:49:52.125Z,55.13
2023-05-08T18:51:55.075Z,57.87
2023-05-08T18:53:58.173Z,56.68
2023-05-08T18:56:03.724Z,56.89
2023-05-08T18:58:06.762Z,59.15
2023-05-08T19:00:11.058Z,59.86
2023-05-08T19:02:14.087Z,57.78
2023-05-08T19:04:17.291Z,57.73
2023-05-08T19:06:21.725Z,59.66
2023-05-08T19:08:25.053Z,59.23
2023-05-08T19:10:28.041Z,60.69
2023-05-08T19:12:31.055Z,59.86
2023-05-08T19:14:33.942Z,60.87
2023-05-08T19:16:37.014Z,60.83
2023-05-08T19:18:39.889Z,60.29
2023-05-08T19:20:42.903Z,60.77
2023-05-08T19:22:47.545Z,62.29
2023-05-08T19:24:50.406Z,63.79
2023-05-08T19:26:53.318Z,63.64
2023-05-08T19:28:56.323Z,63.42
2023-05-08T19:30:59.481Z,63.42
2023-05-08T19:33:02.503Z,63.79
2023-05-08T19:35:06.084Z,64.67
2023-05-08T19:37:08.981Z,65.46
2023-05-08T19:39:14.077Z,66.39
2023-05-08T19:41:18.101Z,67.31
2023-05-08T19:43:21.028Z,66.14
2023-05-08T19:45:23.829Z,67.43
2023-05-08T19:47:26.740Z,66.77
2023-05-08T19:49:29.528Z,67.00
2023-05-08T19:51:32.594Z,66.86
2023-05-08T19:53:36.010Z,67.41
2023-05-08T19:55:40.838Z,67.85
2023-05-08T19:57:43.682Z,67.62
2023-05-08T19:59:46.438Z,67.98
2023-05-08T20:01:50.630Z,68.16
2023-05-08T20:03:53.518Z,68.68
2023-05-08T20:05:56.868Z,68.49
2023-05-08T20:07:59.679Z,69.99
2023-05-08T20:10:02.497Z,70.49
2023-05-08T20:12:07.828Z,70.99
2023-05-08T20:14:10.648Z,71.60
2023-05-08T20:16:13.548Z,70.95
2023-05-08T20:18:16.525Z,72.09
2023-05-08T20:20:19.399Z,72.50
2023-05-08T20:22:22.315Z,72.94
2023-05-08T20:24:25.205Z,72.68
2023-05-08T20:26:29.750Z,72.96
2023-05-08T20:28:34.310Z,72.31
2023-05-08T20:30:37.336Z,73.46
2023-05-08T20:32:40.540Z,73.92
2023-05-08T20:34:44.804Z,73.70
2023-05-08T20:36:47.852Z,74.22
2023-05-08T20:38:51.643Z,73.58
2023-05-08T20:40:58.607Z,73.74
2023-05-08T20:43:03.169Z,73.12
2023-05-08T20:45:09.596Z,73.16
2023-05-08T20:47:12.822Z,73.04
2023-05-08T20:49:17.465Z,73.53
2023-05-08T20:51:21.681Z,73.64
2023-05-08T20:53:24.784Z,73.88
2023-05-08T20:55:27.905Z,74.35
2023-05-08T20:57:31.145Z,75.80
2023-05-08T20:59:33.958Z,75.12
2023-05-08T21:01:38.584Z,75.61
2023-05-08T21:03:41.470Z,76.51
2023-05-08T21:05:44.351Z,76.51
2023-05-08T21:07:47.602Z,76.55
2023-05-08T21:09:50.540Z,75.68
2023-05-08T21:11:53.408Z,76.21
2023-05-08T21:13:56.501Z,77.04
2023-05-08T21:15:59.415Z,78.16
2023-05-08T21:18:04.272Z,78.53
2023-05-08T21:20:08.773Z,77.69
2023-05-08T21:22:14.160Z,77.57
2023-05-08T21:24:17.388Z,76.78
2023-05-08T21:26:23.797Z,76.42
2023-05-08T21:28:26.863Z,76.83
2023-05-08T21:30:29.937Z,76.36
2023-05-08T21:32:32.857Z,76.36
2023-05-08T21:34:37.506Z,77.13
2023-05-08T21:36:40.506Z,77.91
2023-05-08T21:38:43.612Z,78.35
2023-05-08T21:40:46.875Z,78.32
2023-05-08T21:42:50.038Z,78.41
2023-05-08T21:44:55.138Z,80.05
2023-05-08T21:46:58.107Z,79.53
2023-05-08T21:49:01.005Z,78.46
2023-05-08T21:51:06.314Z,78.30
2023-05-08T21:53:09.217Z,78.74
2023-05-08T21:55:12.407Z,77.86
2023-05-08T21:57:15.491Z,78.83
2023-05-08T21:59:18.551Z,79.35
2023-05-08T22:01:21.514Z,78.61
2023-05-08T22:03:24.490Z,78.92
2023-05-08T22:05:27.447Z,78.38
2023-05-08T22:07:31.896Z,78.43
2023-05-08T22:09:34.936Z,78.63
2023-05-08T22:11:38.093Z,78.23
2023-05-08T22:13:41.009Z,78.20
2023-05-08T22:15:44.014Z,79.43
2023-05-08T22:17:47.426Z,79.73
2023-05-08T22:19:50.434Z,79.58
2023-05-08T22:21:53.508Z,81.37
2023-05-08T22:23:57.924Z,81.16
2023-05-08T22:26:00.800Z,80.46
2023-05-08T22:28:03.742Z,80.73
2023-05-08T22:30:07.875Z,80.40
2023-05-08T22:32:11.004Z,79.93
2023-05-08T22:34:14.174Z,79.87
2023-05-08T22:36:17.125Z,80.36
2023-05-08T22:38:20.084Z,81.39
2023-05-08T22:40:24.805Z,79.97
2023-05-08T22:42:27.994Z,80.78
2023-05-08T22:44:31.303Z,79.59
2023-05-08T22:46:34.914Z,80.40
2023-05-08T22:48:37.955Z,79.34
2023-05-08T22:50:41.035Z,79.64
2023-05-08T22:52:43.874Z,80.39
2023-05-08T22:54:46.824Z,80.31
2023-05-08T22:56:51.430Z,80.02
2023-05-08T22:58:55.128Z,80.62
2023-05-08T23:00:59.881Z,80.85
2023-05-08T23:03:02.802Z,81.41
2023-05-08T23:05:07.116Z,81.73
2023-05-08T23:07:10.096Z,80.54
2023-05-08T23:09:13.022Z,81.69
2023-05-08T23:11:16.873Z,81.15
2023-05-08T23:13:21.327Z,81.34
2023-05-08T23:15:24.432Z,81.50
2023-05-08T23:17:27.394Z,80.51
2023-05-08T23:19:30.527Z,82.26
2023-05-08T23:21:33.421Z,81.93
2023-05-08T23:23:36.741Z,81.29
2023-05-08T23:25:39.569Z,81.10
2023-05-08T23:27:42.608Z,82.24
2023-05-08T23:29:47.019Z,82.42
2023-05-08T23:31:49.965Z,81.74
2023-05-08T23:33:53.096Z,81.70
2023-05-08T23:35:57.029Z,80.98
2023-05-08T23:37:59.934Z,82.24
2023-05-08T23:40:03.292Z,82.62
2023-05-08T23:42:06.922Z,81.45
2023-05-08T23:44:10.517Z,82.53
2023-05-08T23:46:15.109Z,82.00
2023-05-08T23:48:18.244Z,82.95
2023-05-08T23:50:21.220Z,82.30
2023-05-08T23:52:24.197Z,82.16
2023-05-08T23:54:27.214Z,81.29
2023-05-08T23:56:30.311Z,81.66
2023-05-08T23:58:33.332Z,83.52
